| Date | Time | Temp. (oF) | Dew Point (oF) | Rel. Hum. (%) | Press. (in.) | Wind Dir. | Wind Speed (mph) | Hourly Rainfall (in.) |
|
|---|---|---|---|---|---|---|---|---|---|
| 1 | 05/22 | 00:00 | 41 | 37 | 86 | 30.34 | W | 0 | 0.00 |
| 2 | 05/21 | 23:00 | 44 | 37 | 79 | 30.34 | W | 0 | 0.00 |
| 3 | 05/21 | 22:00 | 47 | 36 | 68 | 30.32 | W | 0 | 0.00 |
| 4 | 05/21 | 21:00 | 51 | 33 | 52 | 30.30 | W | 1 | 0.00 |
| 5 | 05/21 | 20:00 | 53 | 34 | 49 | 30.28 | SW | 2 | 0.00 |
| 6 | 05/21 | 19:00 | 55 | 33 | 44 | 30.27 | NW | 2 | 0.00 |
| 7 | 05/21 | 18:00 | 58 | 34 | 42 | 30.26 | W | 7 | 0.00 |
| 8 | 05/21 | 17:00 | 58 | 33 | 39 | 30.26 | NW | 12 | 0.00 |
| 9 | 05/21 | 16:00 | 57 | 34 | 42 | 30.26 | NNW | 5 | 0.00 |
| 10 | 05/21 | 15:00 | 56 | 35 | 47 | 30.28 | W | 9 | 0.00 |
| 11 | 05/21 | 14:00 | 54 | 34 | 48 | 30.28 | W | 7 | 0.00 |
| 12 | 05/21 | 13:00 | 55 | 35 | 48 | 30.30 | N | 7 | 0.00 |
| 13 | 05/21 | 12:00 | 53 | 32 | 46 | 30.31 | NW | 11 | 0.00 |
| 14 | 05/21 | 11:00 | 52 | 31 | 45 | 30.33 | W | 6 | 0.00 |
| 15 | 05/21 | 10:00 | 49 | 33 | 54 | 30.33 | N | 5 | 0.00 |
| 16 | 05/21 | 09:00 | 46 | 34 | 65 | 30.34 | NNW | 7 | 0.00 |
| 17 | 05/21 | 08:00 | 43 | 34 | 72 | 30.33 | W | 4 | 0.00 |
| 18 | 05/21 | 07:00 | 37 | 34 | 90 | 30.31 | WSW | 3 | 0.00 |
| 19 | 05/21 | 06:00 | 34 | 32 | 93 | 30.30 | W | 1 | 0.00 |
| 20 | 05/21 | 05:00 | 35 | 32 | 90 | 30.28 | WNW | 0 | 0.00 |
| 21 | 05/21 | 04:00 | 36 | 33 | 90 | 30.26 | W | 0 | 0.00 |
| 22 | 05/21 | 03:00 | 37 | 33 | 88 | 30.26 | WNW | 0 | 0.00 |
| 23 | 05/21 | 02:00 | 39 | 34 | 85 | 30.27 | WNW | 2 | 0.00 |
| 24 | 05/21 | 01:00 | 39 | 33 | 82 | 30.27 | NNW | 1 | 0.00 |